Terminal Aerodrome Forecast
Issued by NWS

Home | Current Version | Previous Version | Text Only | Print | Product List | Glossary On
Versions: 1 2 3 4 5 6 7 8 9 10 11 12 13 14 15 16 17 18 19 20 21 22 23 24 25 26 27 28 29 30 31 32 33 34 35 36 37 38 39 40 41 42 43 44 45
000
FTUS41 KRNK 161130
TAFBCB
TAF
KBCB 161130Z 1612/1712 29004KT P6SM SCT025 SCT060
     FM161400 29003KT P6SM BKN040 BKN080
     FM161700 31007KT P6SM BKN045
     FM162300 34004KT P6SM BKN100
     FM170800 04005KT 2SM BR SCT007 BKN050=

USA.gov is the U.S. government's official web portal to all federal, state and local government web resources and services.